sensor_id;sensor_type;location;lat;lon;timestamp;temperature;humidity
24682;DHT22;12802;53.390;-2.328;2022-07-06T00:01:30;15.40;99.90
24682;DHT22;12802;53.390;-2.328;2022-07-06T00:03:56;15.40;99.90
24682;DHT22;12802;53.390;-2.328;2022-07-06T00:06:23;15.40;99.90
24682;DHT22;12802;53.390;-2.328;2022-07-06T00:08:49;15.30;99.90
24682;DHT22;12802;53.390;-2.328;2022-07-06T00:11:15;15.30;99.90
24682;DHT22;12802;53.390;-2.328;2022-07-06T00:13:41;15.30;99.90
24682;DHT22;12802;53.390;-2.328;2022-07-06T00:16:07;15.20;99.90
24682;DHT22;12802;53.390;-2.328;2022-07-06T00:18:33;15.20;99.90
24682;DHT22;12802;53.390;-2.328;2022-07-06T00:20:59;15.20;99.90
24682;DHT22;12802;53.390;-2.328;2022-07-06T00:23:24;15.20;99.90
24682;DHT22;12802;53.390;-2.328;2022-07-06T00:25:50;15.20;99.90
24682;DHT22;12802;53.390;-2.328;2022-07-06T00:28:16;15.20;99.90
24682;DHT22;12802;53.390;-2.328;2022-07-06T00:30:42;15.20;99.90
24682;DHT22;12802;53.390;-2.328;2022-07-06T00:33:08;15.20;99.90
24682;DHT22;12802;53.390;-2.328;2022-07-06T00:35:34;15.20;99.90
24682;DHT22;12802;53.390;-2.328;2022-07-06T00:38:00;15.20;99.90
24682;DHT22;12802;53.390;-2.328;2022-07-06T00:40:25;15.20;99.90
24682;DHT22;12802;53.390;-2.328;2022-07-06T00:42:51;15.20;99.90
24682;DHT22;12802;53.390;-2.328;2022-07-06T00:45:18;15.20;99.90
24682;DHT22;12802;53.390;-2.328;2022-07-06T00:47:45;15.20;99.90
24682;DHT22;12802;53.390;-2.328;2022-07-06T00:50:13;15.30;99.90
24682;DHT22;12802;53.390;-2.328;2022-07-06T00:52:42;15.30;99.90
24682;DHT22;12802;53.390;-2.328;2022-07-06T00:55:09;15.30;99.90
24682;DHT22;12802;53.390;-2.328;2022-07-06T00:57:36;15.30;99.90
24682;DHT22;12802;53.390;-2.328;2022-07-06T01:00:07;15.30;99.90
24682;DHT22;12802;53.390;-2.328;2022-07-06T01:02:34;15.30;99.90
24682;DHT22;12802;53.390;-2.328;2022-07-06T01:05:04;15.30;99.90
24682;DHT22;12802;53.390;-2.328;2022-07-06T01:07:31;15.30;99.90
24682;DHT22;12802;53.390;-2.328;2022-07-06T01:09:57;15.40;99.90
24682;DHT22;12802;53.390;-2.328;2022-07-06T01:12:23;15.40;99.90
24682;DHT22;12802;53.390;-2.328;2022-07-06T01:14:49;15.40;99.90
24682;DHT22;12802;53.390;-2.328;2022-07-06T01:17:16;15.40;99.90
24682;DHT22;12802;53.390;-2.328;2022-07-06T01:19:43;15.40;99.90
24682;DHT22;12802;53.390;-2.328;2022-07-06T01:22:10;15.40;99.90
24682;DHT22;12802;53.390;-2.328;2022-07-06T01:24:36;15.40;99.90
24682;DHT22;12802;53.390;-2.328;2022-07-06T01:27:06;15.40;99.90
24682;DHT22;12802;53.390;-2.328;2022-07-06T01:29:33;15.50;99.90
24682;DHT22;12802;53.390;-2.328;2022-07-06T01:32:00;15.50;99.90
24682;DHT22;12802;53.390;-2.328;2022-07-06T01:34:26;15.40;99.90
24682;DHT22;12802;53.390;-2.328;2022-07-06T01:36:53;15.50;99.90
24682;DHT22;12802;53.390;-2.328;2022-07-06T01:39:20;15.50;99.90
24682;DHT22;12802;53.390;-2.328;2022-07-06T01:41:46;15.50;99.90
24682;DHT22;12802;53.390;-2.328;2022-07-06T01:44:12;15.50;99.90
24682;DHT22;12802;53.390;-2.328;2022-07-06T01:46:38;15.50;99.90
24682;DHT22;12802;53.390;-2.328;2022-07-06T01:49:07;15.50;99.90
24682;DHT22;12802;53.390;-2.328;2022-07-06T01:51:33;15.50;99.90
24682;DHT22;12802;53.390;-2.328;2022-07-06T01:53:59;15.50;99.90
24682;DHT22;12802;53.390;-2.328;2022-07-06T01:56:26;15.50;99.90
24682;DHT22;12802;53.390;-2.328;2022-07-06T01:58:56;15.50;99.90
24682;DHT22;12802;53.390;-2.328;2022-07-06T02:01:23;15.60;99.90
24682;DHT22;12802;53.390;-2.328;2022-07-06T02:03:49;15.50;99.90
24682;DHT22;12802;53.390;-2.328;2022-07-06T02:06:15;15.50;99.90
24682;DHT22;12802;53.390;-2.328;2022-07-06T02:08:42;15.50;99.90
24682;DHT22;12802;53.390;-2.328;2022-07-06T02:11:09;15.50;99.90
24682;DHT22;12802;53.390;-2.328;2022-07-06T02:13:37;15.50;99.90
24682;DHT22;12802;53.390;-2.328;2022-07-06T02:16:05;15.50;99.90
24682;DHT22;12802;53.390;-2.328;2022-07-06T02:18:31;15.50;99.90
24682;DHT22;12802;53.390;-2.328;2022-07-06T02:20:57;15.50;99.90
24682;DHT22;12802;53.390;-2.328;2022-07-06T02:23:23;15.50;99.90
24682;DHT22;12802;53.390;-2.328;2022-07-06T02:25:51;15.50;99.90
24682;DHT22;12802;53.390;-2.328;2022-07-06T02:28:17;15.50;99.90
24682;DHT22;12802;53.390;-2.328;2022-07-06T02:30:43;15.60;99.90
24682;DHT22;12802;53.390;-2.328;2022-07-06T02:33:10;15.60;99.90
24682;DHT22;12802;53.390;-2.328;2022-07-06T02:35:37;15.50;99.90
24682;DHT22;12802;53.390;-2.328;2022-07-06T02:38:10;15.50;99.90
24682;DHT22;12802;53.390;-2.328;2022-07-06T02:40:36;15.50;99.90
24682;DHT22;12802;53.390;-2.328;2022-07-06T02:43:03;15.50;99.90
24682;DHT22;12802;53.390;-2.328;2022-07-06T02:45:29;15.50;99.90
24682;DHT22;12802;53.390;-2.328;2022-07-06T02:47:55;15.50;99.90
24682;DHT22;12802;53.390;-2.328;2022-07-06T02:50:24;15.50;99.90
24682;DHT22;12802;53.390;-2.328;2022-07-06T02:52:50;15.60;99.90
24682;DHT22;12802;53.390;-2.328;2022-07-06T02:55:16;15.50;99.90
24682;DHT22;12802;53.390;-2.328;2022-07-06T02:57:42;15.50;99.90
24682;DHT22;12802;53.390;-2.328;2022-07-06T03:00:09;15.60;99.90
24682;DHT22;12802;53.390;-2.328;2022-07-06T03:02:36;15.60;99.90
24682;DHT22;12802;53.390;-2.328;2022-07-06T03:05:03;15.60;99.90
24682;DHT22;12802;53.390;-2.328;2022-07-06T03:07:29;15.50;99.90
24682;DHT22;12802;53.390;-2.328;2022-07-06T03:09:55;15.50;99.90
24682;DHT22;12802;53.390;-2.328;2022-07-06T03:12:21;15.50;99.90
24682;DHT22;12802;53.390;-2.328;2022-07-06T03:14:46;15.50;99.90
24682;DHT22;12802;53.390;-2.328;2022-07-06T03:17:13;15.50;99.90
24682;DHT22;12802;53.390;-2.328;2022-07-06T03:19:40;15.50;99.90
24682;DHT22;12802;53.390;-2.328;2022-07-06T03:22:07;15.60;99.90
24682;DHT22;12802;53.390;-2.328;2022-07-06T03:24:32;15.60;99.90
24682;DHT22;12802;53.390;-2.328;2022-07-06T03:26:58;15.60;99.90
24682;DHT22;12802;53.390;-2.328;2022-07-06T03:29:24;15.60;99.90
24682;DHT22;12802;53.390;-2.328;2022-07-06T03:31:50;15.60;99.90
24682;DHT22;12802;53.390;-2.328;2022-07-06T03:34:16;15.60;99.90
24682;DHT22;12802;53.390;-2.328;2022-07-06T03:36:42;15.60;99.90
24682;DHT22;12802;53.390;-2.328;2022-07-06T03:39:08;15.60;99.90
24682;DHT22;12802;53.390;-2.328;2022-07-06T03:41:35;15.50;99.90
24682;DHT22;12802;53.390;-2.328;2022-07-06T03:44:02;15.60;99.90
24682;DHT22;12802;53.390;-2.328;2022-07-06T03:46:29;15.60;99.90
24682;DHT22;12802;53.390;-2.328;2022-07-06T03:48:55;15.60;99.90
24682;DHT22;12802;53.390;-2.328;2022-07-06T03:51:20;15.60;99.90
24682;DHT22;12802;53.390;-2.328;2022-07-06T03:53:47;15.60;99.90
24682;DHT22;12802;53.390;-2.328;2022-07-06T03:56:13;15.60;99.90
24682;DHT22;12802;53.390;-2.328;2022-07-06T03:58:59;15.70;99.90
24682;DHT22;12802;53.390;-2.328;2022-07-06T04:01:25;15.60;99.90
24682;DHT22;12802;53.390;-2.328;2022-07-06T04:03:51;15.60;99.90
24682;DHT22;12802;53.390;-2.328;2022-07-06T04:06:17;15.60;99.90
24682;DHT22;12802;53.390;-2.328;2022-07-06T04:08:43;15.60;99.90
24682;DHT22;12802;53.390;-2.328;2022-07-06T04:11:10;15.60;99.90
24682;DHT22;12802;53.390;-2.328;2022-07-06T04:13:36;15.60;99.90
24682;DHT22;12802;53.390;-2.328;2022-07-06T04:16:05;15.70;99.90
24682;DHT22;12802;53.390;-2.328;2022-07-06T04:18:31;15.60;99.90
24682;DHT22;12802;53.390;-2.328;2022-07-06T04:20:57;15.60;99.90
24682;DHT22;12802;53.390;-2.328;2022-07-06T04:23:24;15.60;99.90
24682;DHT22;12802;53.390;-2.328;2022-07-06T04:25:51;15.60;99.90
24682;DHT22;12802;53.390;-2.328;2022-07-06T04:28:18;15.60;99.90
24682;DHT22;12802;53.390;-2.328;2022-07-06T04:30:44;15.60;99.90
24682;DHT22;12802;53.390;-2.328;2022-07-06T04:33:15;15.60;99.90
24682;DHT22;12802;53.390;-2.328;2022-07-06T04:35:43;15.60;99.90
24682;DHT22;12802;53.390;-2.328;2022-07-06T04:38:09;15.60;99.90
24682;DHT22;12802;53.390;-2.328;2022-07-06T04:40:35;15.60;99.90
24682;DHT22;12802;53.390;-2.328;2022-07-06T04:43:05;15.60;99.90
24682;DHT22;12802;53.390;-2.328;2022-07-06T04:45:31;15.60;99.90
24682;DHT22;12802;53.390;-2.328;2022-07-06T04:47:58;15.60;99.90
24682;DHT22;12802;53.390;-2.328;2022-07-06T04:50:24;15.60;99.90
24682;DHT22;12802;53.390;-2.328;2022-07-06T04:52:51;15.60;99.90
24682;DHT22;12802;53.390;-2.328;2022-07-06T04:55:18;15.60;99.90
24682;DHT22;12802;53.390;-2.328;2022-07-06T04:57:43;15.60;99.90
24682;DHT22;12802;53.390;-2.328;2022-07-06T05:00:12;15.70;99.90
24682;DHT22;12802;53.390;-2.328;2022-07-06T05:02:38;15.70;99.90
24682;DHT22;12802;53.390;-2.328;2022-07-06T05:05:04;15.70;99.90
24682;DHT22;12802;53.390;-2.328;2022-07-06T05:07:30;15.70;99.90
24682;DHT22;12802;53.390;-2.328;2022-07-06T05:09:59;15.70;99.90
24682;DHT22;12802;53.390;-2.328;2022-07-06T05:12:24;15.70;99.90
24682;DHT22;12802;53.390;-2.328;2022-07-06T05:14:50;15.60;99.90
24682;DHT22;12802;53.390;-2.328;2022-07-06T05:17:17;15.60;99.90
24682;DHT22;12802;53.390;-2.328;2022-07-06T05:19:44;15.60;99.90
24682;DHT22;12802;53.390;-2.328;2022-07-06T05:22:10;15.60;99.90
24682;DHT22;12802;53.390;-2.328;2022-07-06T05:24:35;15.60;99.90
24682;DHT22;12802;53.390;-2.328;2022-07-06T05:27:02;15.50;99.90
24682;DHT22;12802;53.390;-2.328;2022-07-06T05:29:28;15.50;99.90
24682;DHT22;12802;53.390;-2.328;2022-07-06T05:31:54;15.60;99.90
24682;DHT22;12802;53.390;-2.328;2022-07-06T05:34:20;15.60;99.90
24682;DHT22;12802;53.390;-2.328;2022-07-06T05:36:46;15.60;99.90
24682;DHT22;12802;53.390;-2.328;2022-07-06T05:39:12;15.60;99.90
24682;DHT22;12802;53.390;-2.328;2022-07-06T05:41:38;15.60;99.90
24682;DHT22;12802;53.390;-2.328;2022-07-06T05:44:04;15.50;99.90
24682;DHT22;12802;53.390;-2.328;2022-07-06T05:46:30;15.60;99.90
24682;DHT22;12802;53.390;-2.328;2022-07-06T05:48:56;15.60;99.90
24682;DHT22;12802;53.390;-2.328;2022-07-06T05:51:40;15.60;99.90
24682;DHT22;12802;53.390;-2.328;2022-07-06T05:54:07;15.50;99.90
24682;DHT22;12802;53.390;-2.328;2022-07-06T05:56:32;15.50;99.90
24682;DHT22;12802;53.390;-2.328;2022-07-06T05:59:00;15.50;99.90
24682;DHT22;12802;53.390;-2.328;2022-07-06T06:01:25;15.50;99.90
24682;DHT22;12802;53.390;-2.328;2022-07-06T06:04:02;15.50;99.90
24682;DHT22;12802;53.390;-2.328;2022-07-06T06:06:28;15.50;99.90
24682;DHT22;12802;53.390;-2.328;2022-07-06T06:08:57;15.50;99.90
24682;DHT22;12802;53.390;-2.328;2022-07-06T06:11:23;15.50;99.90
24682;DHT22;12802;53.390;-2.328;2022-07-06T06:13:49;15.50;99.90
24682;DHT22;12802;53.390;-2.328;2022-07-06T06:16:14;15.50;99.90
24682;DHT22;12802;53.390;-2.328;2022-07-06T06:18:41;15.50;99.90
24682;DHT22;12802;53.390;-2.328;2022-07-06T06:21:07;15.50;99.90
24682;DHT22;12802;53.390;-2.328;2022-07-06T06:23:33;15.50;99.90
24682;DHT22;12802;53.390;-2.328;2022-07-06T06:25:58;15.50;99.90
24682;DHT22;12802;53.390;-2.328;2022-07-06T06:28:24;15.50;99.90
24682;DHT22;12802;53.390;-2.328;2022-07-06T06:30:50;15.50;99.90
24682;DHT22;12802;53.390;-2.328;2022-07-06T06:33:17;15.40;99.90
24682;DHT22;12802;53.390;-2.328;2022-07-06T06:35:48;15.40;99.90
24682;DHT22;12802;53.390;-2.328;2022-07-06T06:38:14;15.40;99.90
24682;DHT22;12802;53.390;-2.328;2022-07-06T06:40:40;15.40;99.90
24682;DHT22;12802;53.390;-2.328;2022-07-06T06:43:06;15.40;99.90
24682;DHT22;12802;53.390;-2.328;2022-07-06T06:45:37;15.40;99.90
24682;DHT22;12802;53.390;-2.328;2022-07-06T06:48:03;15.30;99.90
24682;DHT22;12802;53.390;-2.328;2022-07-06T06:50:29;15.30;99.90
24682;DHT22;12802;53.390;-2.328;2022-07-06T06:52:55;15.30;99.90
24682;DHT22;12802;53.390;-2.328;2022-07-06T06:55:20;15.30;99.90
24682;DHT22;12802;53.390;-2.328;2022-07-06T06:57:46;15.30;99.90
24682;DHT22;12802;53.390;-2.328;2022-07-06T07:00:13;15.30;99.90
24682;DHT22;12802;53.390;-2.328;2022-07-06T07:02:39;15.30;99.90
24682;DHT22;12802;53.390;-2.328;2022-07-06T07:05:05;15.30;99.90
24682;DHT22;12802;53.390;-2.328;2022-07-06T07:07:32;15.40;99.90
24682;DHT22;12802;53.390;-2.328;2022-07-06T07:09:58;15.40;99.90
24682;DHT22;12802;53.390;-2.328;2022-07-06T07:12:24;15.40;99.90
24682;DHT22;12802;53.390;-2.328;2022-07-06T07:14:50;15.40;99.90
24682;DHT22;12802;53.390;-2.328;2022-07-06T07:17:16;15.40;99.90
24682;DHT22;12802;53.390;-2.328;2022-07-06T07:19:42;15.40;99.90
24682;DHT22;12802;53.390;-2.328;2022-07-06T07:22:08;15.40;99.90
24682;DHT22;12802;53.390;-2.328;2022-07-06T07:24:33;15.40;99.90
24682;DHT22;12802;53.390;-2.328;2022-07-06T07:26:59;15.40;99.90
24682;DHT22;12802;53.390;-2.328;2022-07-06T07:29:25;15.40;99.90
24682;DHT22;12802;53.390;-2.328;2022-07-06T07:31:51;15.40;99.90
24682;DHT22;12802;53.390;-2.328;2022-07-06T07:34:17;15.40;99.90
24682;DHT22;12802;53.390;-2.328;2022-07-06T07:36:43;15.40;99.90
24682;DHT22;12802;53.390;-2.328;2022-07-06T07:39:09;15.40;99.90
24682;DHT22;12802;53.390;-2.328;2022-07-06T07:41:34;15.40;99.90
24682;DHT22;12802;53.390;-2.328;2022-07-06T07:44:00;15.40;99.90
24682;DHT22;12802;53.390;-2.328;2022-07-06T07:46:26;15.40;99.90
24682;DHT22;12802;53.390;-2.328;2022-07-06T07:48:52;15.40;99.90
24682;DHT22;12802;53.390;-2.328;2022-07-06T07:51:19;15.50;99.90
24682;DHT22;12802;53.390;-2.328;2022-07-06T07:53:45;15.50;99.90
24682;DHT22;12802;53.390;-2.328;2022-07-06T07:56:11;15.50;99.90
24682;DHT22;12802;53.390;-2.328;2022-07-06T07:58:37;15.50;99.90
24682;DHT22;12802;53.390;-2.328;2022-07-06T08:01:04;15.50;99.90
24682;DHT22;12802;53.390;-2.328;2022-07-06T08:03:30;15.50;99.90
24682;DHT22;12802;53.390;-2.328;2022-07-06T08:05:57;15.60;99.90
24682;DHT22;12802;53.390;-2.328;2022-07-06T08:08:23;15.60;99.90
24682;DHT22;12802;53.390;-2.328;2022-07-06T08:10:49;15.60;99.90
24682;DHT22;12802;53.390;-2.328;2022-07-06T08:13:15;15.70;99.90
24682;DHT22;12802;53.390;-2.328;2022-07-06T08:15:41;15.60;99.90
24682;DHT22;12802;53.390;-2.328;2022-07-06T08:18:08;15.70;99.90
24682;DHT22;12802;53.390;-2.328;2022-07-06T08:20:35;15.70;99.90
24682;DHT22;12802;53.390;-2.328;2022-07-06T08:23:01;15.80;99.90
24682;DHT22;12802;53.390;-2.328;2022-07-06T08:25:27;15.70;99.90
24682;DHT22;12802;53.390;-2.328;2022-07-06T08:27:53;15.70;99.90
24682;DHT22;12802;53.390;-2.328;2022-07-06T08:30:19;15.80;99.90
24682;DHT22;12802;53.390;-2.328;2022-07-06T08:32:45;15.80;99.90
24682;DHT22;12802;53.390;-2.328;2022-07-06T08:35:11;15.80;99.90
24682;DHT22;12802;53.390;-2.328;2022-07-06T08:37:37;15.80;99.90
24682;DHT22;12802;53.390;-2.328;2022-07-06T08:40:04;15.90;99.90
24682;DHT22;12802;53.390;-2.328;2022-07-06T08:42:31;15.90;99.90
24682;DHT22;12802;53.390;-2.328;2022-07-06T08:45:03;16.00;99.90
24682;DHT22;12802;53.390;-2.328;2022-07-06T08:47:30;16.00;99.90
24682;DHT22;12802;53.390;-2.328;2022-07-06T08:49:57;15.90;99.90
24682;DHT22;12802;53.390;-2.328;2022-07-06T08:52:23;16.00;99.90
24682;DHT22;12802;53.390;-2.328;2022-07-06T08:54:49;16.00;99.90
24682;DHT22;12802;53.390;-2.328;2022-07-06T08:57:15;16.00;99.90
24682;DHT22;12802;53.390;-2.328;2022-07-06T08:59:41;16.00;99.90
24682;DHT22;12802;53.390;-2.328;2022-07-06T09:02:08;16.00;99.90
24682;DHT22;12802;53.390;-2.328;2022-07-06T09:04:36;16.00;99.90
24682;DHT22;12802;53.390;-2.328;2022-07-06T09:07:02;16.00;99.90
24682;DHT22;12802;53.390;-2.328;2022-07-06T09:09:29;16.00;99.90
24682;DHT22;12802;53.390;-2.328;2022-07-06T09:11:58;16.00;99.90
24682;DHT22;12802;53.390;-2.328;2022-07-06T09:14:24;16.00;99.90
24682;DHT22;12802;53.390;-2.328;2022-07-06T09:17:02;16.00;99.90
24682;DHT22;12802;53.390;-2.328;2022-07-06T09:19:30;16.00;99.90
24682;DHT22;12802;53.390;-2.328;2022-07-06T09:21:56;16.00;99.90
24682;DHT22;12802;53.390;-2.328;2022-07-06T09:24:22;16.00;99.90
24682;DHT22;12802;53.390;-2.328;2022-07-06T09:26:48;16.10;99.90
24682;DHT22;12802;53.390;-2.328;2022-07-06T09:29:14;16.20;99.90
24682;DHT22;12802;53.390;-2.328;2022-07-06T09:31:40;16.20;99.90
24682;DHT22;12802;53.390;-2.328;2022-07-06T09:34:07;16.20;99.90
24682;DHT22;12802;53.390;-2.328;2022-07-06T09:36:48;16.30;99.90
24682;DHT22;12802;53.390;-2.328;2022-07-06T09:39:28;16.30;99.90
24682;DHT22;12802;53.390;-2.328;2022-07-06T09:41:57;16.30;99.90
24682;DHT22;12802;53.390;-2.328;2022-07-06T09:46:59;16.40;99.90
24682;DHT22;12802;53.390;-2.328;2022-07-06T09:49:26;16.50;99.90
24682;DHT22;12802;53.390;-2.328;2022-07-06T09:51:57;16.50;99.90
24682;DHT22;12802;53.390;-2.328;2022-07-06T09:54:24;16.70;99.90
24682;DHT22;12802;53.390;-2.328;2022-07-06T09:56:50;16.80;99.90
24682;DHT22;12802;53.390;-2.328;2022-07-06T09:59:22;16.90;99.90
24682;DHT22;12802;53.390;-2.328;2022-07-06T10:01:51;17.00;99.90
24682;DHT22;12802;53.390;-2.328;2022-07-06T10:04:17;17.10;99.90
24682;DHT22;12802;53.390;-2.328;2022-07-06T10:06:46;17.20;99.90
24682;DHT22;12802;53.390;-2.328;2022-07-06T10:09:12;17.40;99.90
24682;DHT22;12802;53.390;-2.328;2022-07-06T10:11:45;17.30;99.90
24682;DHT22;12802;53.390;-2.328;2022-07-06T10:14:17;17.30;99.90
24682;DHT22;12802;53.390;-2.328;2022-07-06T10:16:43;17.10;99.90
24682;DHT22;12802;53.390;-2.328;2022-07-06T10:19:10;17.00;99.90
24682;DHT22;12802;53.390;-2.328;2022-07-06T10:21:38;16.90;99.90
24682;DHT22;12802;53.390;-2.328;2022-07-06T10:24:05;16.90;99.90
24682;DHT22;12802;53.390;-2.328;2022-07-06T10:26:32;16.90;99.90
24682;DHT22;12802;53.390;-2.328;2022-07-06T10:28:59;17.00;99.90
24682;DHT22;12802;53.390;-2.328;2022-07-06T10:31:27;17.00;99.90
24682;DHT22;12802;53.390;-2.328;2022-07-06T10:33:59;17.00;99.90
24682;DHT22;12802;53.390;-2.328;2022-07-06T10:36:25;17.10;99.90
24682;DHT22;12802;53.390;-2.328;2022-07-06T10:38:52;17.10;99.90
24682;DHT22;12802;53.390;-2.328;2022-07-06T10:41:33;17.20;99.90
24682;DHT22;12802;53.390;-2.328;2022-07-06T10:44:17;17.30;99.90
24682;DHT22;12802;53.390;-2.328;2022-07-06T10:46:51;17.30;99.90
24682;DHT22;12802;53.390;-2.328;2022-07-06T10:49:17;17.30;99.90
24682;DHT22;12802;53.390;-2.328;2022-07-06T10:51:43;17.30;99.90
24682;DHT22;12802;53.390;-2.328;2022-07-06T10:54:09;17.20;99.90
24682;DHT22;12802;53.390;-2.328;2022-07-06T10:56:44;17.20;99.90
24682;DHT22;12802;53.390;-2.328;2022-07-06T10:59:20;17.10;99.90
24682;DHT22;12802;53.390;-2.328;2022-07-06T11:02:16;17.10;99.90
24682;DHT22;12802;53.390;-2.328;2022-07-06T11:04:44;17.30;99.90
24682;DHT22;12802;53.390;-2.328;2022-07-06T11:07:15;17.40;99.90
24682;DHT22;12802;53.390;-2.328;2022-07-06T11:09:46;17.40;99.90
24682;DHT22;12802;53.390;-2.328;2022-07-06T11:12:19;17.40;99.90
24682;DHT22;12802;53.390;-2.328;2022-07-06T11:14:48;17.30;99.90
24682;DHT22;12802;53.390;-2.328;2022-07-06T11:17:14;17.20;99.90
24682;DHT22;12802;53.390;-2.328;2022-07-06T11:19:57;17.20;99.90
24682;DHT22;12802;53.390;-2.328;2022-07-06T11:22:24;17.40;99.90
24682;DHT22;12802;53.390;-2.328;2022-07-06T11:24:50;17.70;99.90
24682;DHT22;12802;53.390;-2.328;2022-07-06T11:27:18;18.10;99.90
24682;DHT22;12802;53.390;-2.328;2022-07-06T11:29:44;18.40;99.90
24682;DHT22;12802;53.390;-2.328;2022-07-06T11:32:11;18.50;99.90
24682;DHT22;12802;53.390;-2.328;2022-07-06T11:34:43;18.20;99.90
24682;DHT22;12802;53.390;-2.328;2022-07-06T11:37:11;18.00;99.90
24682;DHT22;12802;53.390;-2.328;2022-07-06T11:39:42;17.90;99.90
24682;DHT22;12802;53.390;-2.328;2022-07-06T11:42:10;17.90;99.90
24682;DHT22;12802;53.390;-2.328;2022-07-06T11:44:37;17.90;99.90
24682;DHT22;12802;53.390;-2.328;2022-07-06T11:47:04;17.90;99.90
24682;DHT22;12802;53.390;-2.328;2022-07-06T11:49:31;17.80;99.90
24682;DHT22;12802;53.390;-2.328;2022-07-06T11:51:57;17.80;99.90
24682;DHT22;12802;53.390;-2.328;2022-07-06T11:54:24;17.70;99.90
24682;DHT22;12802;53.390;-2.328;2022-07-06T11:59:21;17.60;99.90
24682;DHT22;12802;53.390;-2.328;2022-07-06T12:01:48;17.70;99.90
24682;DHT22;12802;53.390;-2.328;2022-07-06T12:04:14;17.70;99.90
24682;DHT22;12802;53.390;-2.328;2022-07-06T12:06:39;17.70;99.90
24682;DHT22;12802;53.390;-2.328;2022-07-06T12:09:05;17.70;99.90
24682;DHT22;12802;53.390;-2.328;2022-07-06T12:11:36;17.60;99.90
24682;DHT22;12802;53.390;-2.328;2022-07-06T12:14:22;17.60;99.90
24682;DHT22;12802;53.390;-2.328;2022-07-06T12:16:49;17.70;99.90
24682;DHT22;12802;53.390;-2.328;2022-07-06T12:19:16;17.70;99.90
24682;DHT22;12802;53.390;-2.328;2022-07-06T12:21:50;17.80;99.90
24682;DHT22;12802;53.390;-2.328;2022-07-06T12:24:27;17.90;99.90
24682;DHT22;12802;53.390;-2.328;2022-07-06T12:26:55;18.00;99.90
24682;DHT22;12802;53.390;-2.328;2022-07-06T12:29:22;18.00;99.90
24682;DHT22;12802;53.390;-2.328;2022-07-06T12:34:15;17.90;99.90
24682;DHT22;12802;53.390;-2.328;2022-07-06T12:37:08;17.80;99.90
24682;DHT22;12802;53.390;-2.328;2022-07-06T12:39:46;17.80;99.90
24682;DHT22;12802;53.390;-2.328;2022-07-06T12:42:17;17.70;99.90
24682;DHT22;12802;53.390;-2.328;2022-07-06T12:44:54;17.70;99.90
24682;DHT22;12802;53.390;-2.328;2022-07-06T12:47:23;17.80;99.90
24682;DHT22;12802;53.390;-2.328;2022-07-06T12:50:10;17.80;99.90
24682;DHT22;12802;53.390;-2.328;2022-07-06T12:52:37;17.80;99.90
24682;DHT22;12802;53.390;-2.328;2022-07-06T12:55:05;17.80;99.90
24682;DHT22;12802;53.390;-2.328;2022-07-06T12:57:48;17.80;99.90
24682;DHT22;12802;53.390;-2.328;2022-07-06T13:00:15;17.70;99.90
24682;DHT22;12802;53.390;-2.328;2022-07-06T13:02:44;17.70;99.90
24682;DHT22;12802;53.390;-2.328;2022-07-06T13:05:12;17.60;99.90
24682;DHT22;12802;53.390;-2.328;2022-07-06T13:07:47;17.60;99.90
24682;DHT22;12802;53.390;-2.328;2022-07-06T13:10:14;17.70;99.90
24682;DHT22;12802;53.390;-2.328;2022-07-06T13:12:40;17.80;99.90
24682;DHT22;12802;53.390;-2.328;2022-07-06T13:15:08;17.80;99.90
24682;DHT22;12802;53.390;-2.328;2022-07-06T13:17:34;17.80;99.90
24682;DHT22;12802;53.390;-2.328;2022-07-06T13:20:00;17.70;99.90
24682;DHT22;12802;53.390;-2.328;2022-07-06T13:22:26;17.70;99.90
24682;DHT22;12802;53.390;-2.328;2022-07-06T13:24:52;17.70;99.90
24682;DHT22;12802;53.390;-2.328;2022-07-06T13:27:18;17.60;99.90
24682;DHT22;12802;53.390;-2.328;2022-07-06T13:29:43;17.70;99.90
24682;DHT22;12802;53.390;-2.328;2022-07-06T13:32:09;17.70;99.90
24682;DHT22;12802;53.390;-2.328;2022-07-06T13:34:36;17.80;99.90
24682;DHT22;12802;53.390;-2.328;2022-07-06T13:37:03;18.10;99.90
24682;DHT22;12802;53.390;-2.328;2022-07-06T13:39:29;18.30;99.90
24682;DHT22;12802;53.390;-2.328;2022-07-06T13:41:55;18.40;99.90
24682;DHT22;12802;53.390;-2.328;2022-07-06T13:44:21;18.30;99.90
24682;DHT22;12802;53.390;-2.328;2022-07-06T13:46:47;18.10;99.90
24682;DHT22;12802;53.390;-2.328;2022-07-06T13:49:13;18.00;99.90
24682;DHT22;12802;53.390;-2.328;2022-07-06T13:51:39;17.90;99.90
24682;DHT22;12802;53.390;-2.328;2022-07-06T13:54:05;17.80;99.90
24682;DHT22;12802;53.390;-2.328;2022-07-06T13:56:31;17.80;99.90
24682;DHT22;12802;53.390;-2.328;2022-07-06T13:58:57;17.80;99.90
24682;DHT22;12802;53.390;-2.328;2022-07-06T14:01:23;17.80;99.90
24682;DHT22;12802;53.390;-2.328;2022-07-06T14:03:49;17.90;99.90
24682;DHT22;12802;53.390;-2.328;2022-07-06T14:06:15;18.00;99.90
24682;DHT22;12802;53.390;-2.328;2022-07-06T14:08:42;18.00;99.90
24682;DHT22;12802;53.390;-2.328;2022-07-06T14:11:09;18.00;99.90
24682;DHT22;12802;53.390;-2.328;2022-07-06T14:13:36;18.10;99.90
24682;DHT22;12802;53.390;-2.328;2022-07-06T14:16:02;18.00;99.90
24682;DHT22;12802;53.390;-2.328;2022-07-06T14:18:28;17.90;99.90
24682;DHT22;12802;53.390;-2.328;2022-07-06T14:20:54;17.90;99.90
24682;DHT22;12802;53.390;-2.328;2022-07-06T14:23:21;17.80;99.90
24682;DHT22;12802;53.390;-2.328;2022-07-06T14:25:47;17.80;99.90
24682;DHT22;12802;53.390;-2.328;2022-07-06T14:28:15;17.80;99.90
24682;DHT22;12802;53.390;-2.328;2022-07-06T14:30:43;17.80;99.90
24682;DHT22;12802;53.390;-2.328;2022-07-06T14:33:11;17.80;99.90
24682;DHT22;12802;53.390;-2.328;2022-07-06T14:35:39;17.90;99.90
24682;DHT22;12802;53.390;-2.328;2022-07-06T14:38:05;17.80;99.90
24682;DHT22;12802;53.390;-2.328;2022-07-06T14:40:32;17.80;99.90
24682;DHT22;12802;53.390;-2.328;2022-07-06T14:42:58;17.70;99.90
24682;DHT22;12802;53.390;-2.328;2022-07-06T14:45:24;17.80;99.90
24682;DHT22;12802;53.390;-2.328;2022-07-06T14:47:50;17.80;99.90
24682;DHT22;12802;53.390;-2.328;2022-07-06T14:50:16;17.90;99.90
24682;DHT22;12802;53.390;-2.328;2022-07-06T14:52:42;17.90;99.90
24682;DHT22;12802;53.390;-2.328;2022-07-06T14:55:07;18.00;99.90
24682;DHT22;12802;53.390;-2.328;2022-07-06T14:57:33;18.00;99.90
24682;DHT22;12802;53.390;-2.328;2022-07-06T14:59:59;18.00;99.90
24682;DHT22;12802;53.390;-2.328;2022-07-06T15:02:25;18.00;99.90
24682;DHT22;12802;53.390;-2.328;2022-07-06T15:04:50;18.00;99.90
24682;DHT22;12802;53.390;-2.328;2022-07-06T15:07:16;18.00;99.90
24682;DHT22;12802;53.390;-2.328;2022-07-06T15:09:42;18.00;99.90
24682;DHT22;12802;53.390;-2.328;2022-07-06T15:12:08;18.00;99.90
24682;DHT22;12802;53.390;-2.328;2022-07-06T15:14:34;18.10;99.90
24682;DHT22;12802;53.390;-2.328;2022-07-06T15:17:01;18.20;99.90
24682;DHT22;12802;53.390;-2.328;2022-07-06T15:19:27;18.10;99.90
24682;DHT22;12802;53.390;-2.328;2022-07-06T15:21:54;18.20;99.90
24682;DHT22;12802;53.390;-2.328;2022-07-06T15:24:20;18.20;99.90